createdAt,value
2018-06-15T00:00:35.189Z,16.50
2018-06-15T00:03:03.716Z,16.50
2018-06-15T00:05:31.643Z,16.60
2018-06-15T00:07:59.285Z,16.60
2018-06-15T00:10:26.845Z,16.60
2018-06-15T00:12:54.440Z,16.50
2018-06-15T00:15:21.984Z,16.50
2018-06-15T00:17:49.546Z,16.50
2018-06-15T00:20:17.129Z,16.50
2018-06-15T00:22:44.652Z,16.50
2018-06-15T00:25:12.474Z,16.50
2018-06-15T00:27:40.045Z,16.50
2018-06-15T00:30:07.942Z,16.50
2018-06-15T00:32:35.980Z,16.50
2018-06-15T00:35:03.677Z,16.50
2018-06-15T00:37:32.537Z,16.50
2018-06-15T00:40:00.118Z,16.40
2018-06-15T00:42:27.669Z,16.40
2018-06-15T00:44:55.402Z,16.40
2018-06-15T00:47:22.973Z,16.40
2018-06-15T00:49:50.549Z,16.40
2018-06-15T00:52:18.690Z,16.40
2018-06-15T00:54:46.244Z,16.40
2018-06-15T00:59:47.390Z,16.40
2018-06-15T01:02:14.981Z,16.50
2018-06-15T01:04:42.514Z,16.40
2018-06-15T01:07:10.061Z,16.40
2018-06-15T01:09:37.672Z,16.40
2018-06-15T01:12:05.445Z,16.40
2018-06-15T01:14:33.265Z,16.40
2018-06-15T01:17:01.954Z,16.40
2018-06-15T01:19:29.549Z,16.30
2018-06-15T01:21:57.125Z,16.30
2018-06-15T01:24:24.665Z,16.30
2018-06-15T01:26:52.317Z,16.20
2018-06-15T01:29:19.853Z,16.30
2018-06-15T01:31:47.394Z,16.20
2018-06-15T01:34:14.990Z,16.30
2018-06-15T01:36:42.563Z,16.30
2018-06-15T01:39:11.413Z,16.30
2018-06-15T01:41:39.040Z,16.20
2018-06-15T01:44:06.633Z,16.20
2018-06-15T01:46:34.437Z,16.20
2018-06-15T01:49:02.013Z,16.20
2018-06-15T01:51:29.781Z,16.30
2018-06-15T01:53:57.585Z,16.30
2018-06-15T01:56:25.209Z,16.30
2018-06-15T01:58:52.822Z,16.30
2018-06-15T02:01:20.542Z,16.40
2018-06-15T02:03:47.997Z,16.30
2018-06-15T02:06:15.621Z,16.30
2018-06-15T02:08:45.253Z,16.30
2018-06-15T02:11:13.066Z,16.30
2018-06-15T02:13:40.633Z,16.30
2018-06-15T02:16:08.357Z,16.30
2018-06-15T02:18:35.878Z,16.20
2018-06-15T02:21:03.457Z,16.20
2018-06-15T02:23:31.023Z,16.30
2018-06-15T02:26:05.889Z,16.30
2018-06-15T02:28:33.430Z,16.30
2018-06-15T02:31:01.025Z,16.30
2018-06-15T02:33:28.554Z,16.20
2018-06-15T02:35:56.215Z,16.20
2018-06-15T02:38:23.759Z,16.20
2018-06-15T02:40:51.497Z,16.10
2018-06-15T02:43:19.048Z,16.20
2018-06-15T02:45:46.600Z,16.20
2018-06-15T02:48:14.199Z,16.20
2018-06-15T02:50:41.749Z,16.20
2018-06-15T02:53:09.306Z,16.20
2018-06-15T02:55:36.898Z,16.20
2018-06-15T02:58:04.575Z,16.20
2018-06-15T03:00:32.173Z,16.20
2018-06-15T03:02:59.742Z,16.20
2018-06-15T03:05:27.274Z,16.20
2018-06-15T03:07:54.853Z,16.20
2018-06-15T03:10:22.406Z,16.20
2018-06-15T03:12:50.112Z,16.20
2018-06-15T03:15:17.740Z,16.20
2018-06-15T03:17:45.300Z,16.20
2018-06-15T03:20:12.876Z,16.20
2018-06-15T03:22:40.573Z,16.20
2018-06-15T03:25:08.269Z,16.10
2018-06-15T03:27:36.517Z,16.20
2018-06-15T03:30:04.837Z,16.20
2018-06-15T03:32:32.424Z,16.20
2018-06-15T03:34:59.981Z,16.10
2018-06-15T03:37:27.865Z,16.20
2018-06-15T03:39:55.393Z,16.10
2018-06-15T03:42:23.018Z,16.10
2018-06-15T03:44:50.573Z,16.10
2018-06-15T03:47:18.187Z,16.10
2018-06-15T03:49:45.776Z,16.20
2018-06-15T03:52:13.337Z,16.20
2018-06-15T03:54:40.869Z,16.20
2018-06-15T03:57:08.490Z,16.20
2018-06-15T03:59:36.057Z,16.30
2018-06-15T04:02:04.325Z,16.20
2018-06-15T04:04:31.918Z,16.20
2018-06-15T04:06:59.538Z,16.30
2018-06-15T04:09:27.157Z,16.20
2018-06-15T04:11:55.177Z,16.20
2018-06-15T04:14:22.777Z,16.30
2018-06-15T04:16:50.389Z,16.30
2018-06-15T04:19:18.073Z,16.30
2018-06-15T04:21:45.617Z,16.30
2018-06-15T04:24:13.197Z,16.30
2018-06-15T04:26:41.885Z,16.40
2018-06-15T04:29:09.926Z,16.40
2018-06-15T04:31:37.597Z,16.50
2018-06-15T04:34:05.159Z,16.50
2018-06-15T04:36:32.714Z,16.50
2018-06-15T04:39:00.278Z,16.50
2018-06-15T04:41:27.846Z,16.50
2018-06-15T04:43:55.470Z,16.60
2018-06-15T04:46:22.981Z,16.60
2018-06-15T04:48:50.562Z,16.60
2018-06-15T04:51:18.276Z,16.70
2018-06-15T04:53:45.857Z,16.70
2018-06-15T04:56:13.433Z,16.70
2018-06-15T04:58:40.978Z,16.80
2018-06-15T05:01:08.561Z,16.90
2018-06-15T05:03:36.120Z,16.90
2018-06-15T05:06:03.692Z,17.00
2018-06-15T05:08:31.226Z,17.00
2018-06-15T05:10:58.788Z,17.20
2018-06-15T05:13:26.330Z,17.20
2018-06-15T05:15:53.830Z,17.30
2018-06-15T05:18:21.400Z,17.20
2018-06-15T05:20:49.131Z,17.30
2018-06-15T05:23:16.796Z,17.30
2018-06-15T05:25:44.418Z,17.30
2018-06-15T05:28:11.988Z,17.30
2018-06-15T05:30:39.701Z,17.30
2018-06-15T05:33:07.309Z,17.30
2018-06-15T05:35:34.938Z,17.40
2018-06-15T05:38:02.544Z,17.50
2018-06-15T05:40:30.249Z,17.60
2018-06-15T05:42:57.786Z,17.70
2018-06-15T05:45:25.357Z,17.80
2018-06-15T05:47:52.869Z,17.70
2018-06-15T05:50:20.672Z,17.90
2018-06-15T05:52:49.165Z,18.00
2018-06-15T05:55:16.725Z,17.90
2018-06-15T05:57:44.332Z,18.00
2018-06-15T06:00:11.929Z,18.00
2018-06-15T06:02:39.463Z,18.00
2018-06-15T06:05:07.060Z,18.10
2018-06-15T06:07:34.569Z,18.30
2018-06-15T06:10:02.314Z,18.30
2018-06-15T06:12:29.865Z,18.40
2018-06-15T06:14:57.437Z,18.40
2018-06-15T06:19:52.682Z,18.60
2018-06-15T06:22:20.623Z,18.70
2018-06-15T06:24:48.721Z,18.70
2018-06-15T06:27:16.271Z,19.00
2018-06-15T06:29:43.837Z,19.00
2018-06-15T06:32:11.359Z,19.00
2018-06-15T06:34:38.957Z,19.20
2018-06-15T06:37:06.516Z,19.10
2018-06-15T06:39:34.888Z,19.00
2018-06-15T06:42:02.421Z,19.00
2018-06-15T06:44:30.057Z,19.20
2018-06-15T06:46:57.582Z,19.30
2018-06-15T06:49:25.126Z,19.50
2018-06-15T06:51:52.838Z,19.50
2018-06-15T06:54:20.405Z,19.60
2018-06-15T06:56:48.035Z,19.70
2018-06-15T06:59:16.050Z,19.90
2018-06-15T07:01:48.053Z,19.90
2018-06-15T07:04:15.743Z,19.70
2018-06-15T07:06:43.285Z,19.50
2018-06-15T07:09:10.861Z,19.30
2018-06-15T07:11:40.201Z,19.40
2018-06-15T07:14:07.764Z,19.60
2018-06-15T07:16:35.305Z,19.90
2018-06-15T07:19:02.882Z,20.30
2018-06-15T07:21:30.467Z,20.70
2018-06-15T07:23:58.338Z,21.10
2018-06-15T07:26:25.877Z,21.50
2018-06-15T07:28:53.429Z,21.50
2018-06-15T07:31:21.021Z,21.30
2018-06-15T07:33:48.545Z,21.30
2018-06-15T07:36:16.173Z,21.00
2018-06-15T07:38:43.693Z,21.00
2018-06-15T07:41:11.233Z,21.10
2018-06-15T07:43:38.936Z,21.20
2018-06-15T07:46:08.596Z,21.10
2018-06-15T07:48:36.221Z,21.00
2018-06-15T07:51:04.670Z,21.20
2018-06-15T07:53:32.201Z,21.30
2018-06-15T07:56:00.117Z,21.40
2018-06-15T07:58:27.739Z,21.50
2018-06-15T08:00:55.341Z,20.90
2018-06-15T08:03:23.673Z,20.50
2018-06-15T08:05:51.293Z,20.30
2018-06-15T08:08:20.424Z,20.20
2018-06-15T08:10:47.961Z,20.10
2018-06-15T08:13:15.477Z,20.40
2018-06-15T08:15:43.209Z,20.70
2018-06-15T08:18:11.201Z,20.90
2018-06-15T08:20:38.778Z,21.20
2018-06-15T08:23:06.408Z,21.50
2018-06-15T08:25:34.006Z,21.80
2018-06-15T08:28:01.749Z,21.70
2018-06-15T08:30:29.318Z,21.40
2018-06-15T08:32:57.042Z,21.10
2018-06-15T08:35:24.969Z,20.90
2018-06-15T08:37:52.522Z,20.80
2018-06-15T08:40:20.130Z,20.80
2018-06-15T08:42:47.694Z,20.80
2018-06-15T08:45:15.467Z,21.00
2018-06-15T08:47:43.365Z,21.30
2018-06-15T08:50:10.965Z,21.50
2018-06-15T08:52:38.682Z,21.90
2018-06-15T08:55:06.277Z,22.10
2018-06-15T08:57:33.956Z,22.40
2018-06-15T09:00:01.543Z,22.60
2018-06-15T09:02:29.133Z,22.70
2018-06-15T09:04:56.710Z,23.00
2018-06-15T09:07:25.193Z,23.00
2018-06-15T09:09:54.756Z,22.90
2018-06-15T09:12:22.481Z,23.10
2018-06-15T09:14:50.089Z,23.50
2018-06-15T09:17:17.686Z,23.70
2018-06-15T09:19:45.245Z,24.00
2018-06-15T09:22:12.989Z,24.10
2018-06-15T09:27:08.578Z,24.00
2018-06-15T09:29:36.290Z,23.50
2018-06-15T09:32:03.935Z,23.10
2018-06-15T09:34:31.501Z,23.10
2018-06-15T09:36:59.125Z,23.10
2018-06-15T09:39:26.665Z,23.30
2018-06-15T09:41:54.265Z,23.50
2018-06-15T09:44:21.943Z,23.40
2018-06-15T09:46:49.528Z,23.70
2018-06-15T09:49:17.197Z,23.80
2018-06-15T09:51:44.785Z,23.80
2018-06-15T09:54:12.849Z,23.90
2018-06-15T09:56:40.531Z,24.20
2018-06-15T09:59:08.085Z,24.40
2018-06-15T10:01:35.672Z,24.80
2018-06-15T10:04:03.297Z,24.60
2018-06-15T10:06:30.910Z,24.40
2018-06-15T10:08:58.477Z,24.60
2018-06-15T10:11:26.919Z,24.90
2018-06-15T10:13:54.485Z,24.90
2018-06-15T10:16:22.538Z,24.60
2018-06-15T10:18:50.109Z,24.60
2018-06-15T10:21:18.566Z,24.50
2018-06-15T10:23:46.138Z,24.50
2018-06-15T10:26:13.701Z,24.30
2018-06-15T10:28:41.286Z,23.90
2018-06-15T10:31:08.859Z,24.20
2018-06-15T10:33:37.253Z,24.50
2018-06-15T10:36:04.834Z,24.40
2018-06-15T10:38:32.566Z,24.50
2018-06-15T10:41:00.129Z,24.50
2018-06-15T10:43:27.957Z,24.10
2018-06-15T10:45:55.634Z,24.10
2018-06-15T10:48:26.226Z,24.10
2018-06-15T10:50:53.813Z,24.00
2018-06-15T10:53:21.417Z,24.20
2018-06-15T10:55:49.003Z,24.50
2018-06-15T10:58:16.599Z,24.80
2018-06-15T11:00:44.145Z,24.70
2018-06-15T11:03:13.669Z,24.70
2018-06-15T11:05:41.230Z,24.90
2018-06-15T11:08:09.294Z,25.10
2018-06-15T11:10:36.893Z,25.30
2018-06-15T11:13:04.503Z,25.60
2018-06-15T11:15:32.140Z,25.80
2018-06-15T11:17:59.729Z,26.10
2018-06-15T11:20:28.751Z,26.50
2018-06-15T11:22:56.636Z,26.20
2018-06-15T11:25:24.823Z,26.20
2018-06-15T11:27:52.405Z,26.50
2018-06-15T11:30:20.936Z,27.20
2018-06-15T11:32:48.567Z,27.00
2018-06-15T11:35:16.138Z,26.90
2018-06-15T11:37:43.745Z,27.20
2018-06-15T11:40:11.324Z,27.20
2018-06-15T11:42:39.001Z,27.00
2018-06-15T11:45:06.538Z,27.20
2018-06-15T11:47:34.874Z,27.60
2018-06-15T11:50:02.585Z,27.30
2018-06-15T11:52:30.172Z,27.30
2018-06-15T11:54:57.786Z,27.40
2018-06-15T11:57:25.601Z,27.30
2018-06-15T11:59:53.204Z,27.20
2018-06-15T12:02:20.846Z,27.10
2018-06-15T12:04:48.574Z,26.90
2018-06-15T12:07:16.829Z,27.10
2018-06-15T12:09:44.404Z,27.00
2018-06-15T12:12:12.090Z,26.70
2018-06-15T12:14:39.657Z,26.40
2018-06-15T12:17:07.402Z,26.70
2018-06-15T12:19:35.885Z,27.40
2018-06-15T12:22:03.458Z,27.90
2018-06-15T12:24:31.045Z,28.20
2018-06-15T12:26:58.628Z,28.80
2018-06-15T12:29:26.202Z,28.90
2018-06-15T12:31:54.153Z,28.80
2018-06-15T12:34:21.756Z,28.70
2018-06-15T12:36:50.471Z,27.90
2018-06-15T12:39:18.070Z,27.60
2018-06-15T12:41:45.625Z,27.40
2018-06-15T12:44:13.278Z,27.50
2018-06-15T12:46:40.845Z,27.60
2018-06-15T12:49:08.469Z,27.60
2018-06-15T12:51:36.074Z,27.80
2018-06-15T12:54:03.798Z,27.90
2018-06-15T12:56:31.397Z,27.80
2018-06-15T12:58:59.105Z,27.90
2018-06-15T13:01:27.206Z,28.00
2018-06-15T13:03:54.947Z,27.80
2018-06-15T13:06:22.998Z,27.70
2018-06-15T13:08:50.622Z,28.00
2018-06-15T13:11:18.197Z,27.70
2018-06-15T13:13:45.778Z,28.10
2018-06-15T13:16:13.337Z,28.10
2018-06-15T13:18:41.157Z,27.80
2018-06-15T13:21:09.080Z,28.10
2018-06-15T13:23:36.997Z,28.10
2018-06-15T13:26:05.110Z,28.30
2018-06-15T13:28:32.716Z,28.20
2018-06-15T13:31:03.409Z,28.20
2018-06-15T13:33:30.978Z,28.70
2018-06-15T13:35:58.586Z,28.80
2018-06-15T13:38:26.502Z,29.20
2018-06-15T13:40:54.554Z,29.60
2018-06-15T13:43:22.175Z,29.30
2018-06-15T13:45:50.374Z,29.50
2018-06-15T13:48:17.997Z,30.00
2018-06-15T13:50:45.782Z,29.80
2018-06-15T13:53:13.354Z,29.80
2018-06-15T13:55:41.004Z,30.50
2018-06-15T13:58:08.765Z,31.50
2018-06-15T14:00:36.365Z,31.00
2018-06-15T14:03:04.031Z,30.40
2018-06-15T14:05:31.758Z,29.10
2018-06-15T14:07:59.334Z,28.40
2018-06-15T14:10:26.929Z,27.60
2018-06-15T14:12:54.707Z,27.10
2018-06-15T14:15:22.336Z,26.80
2018-06-15T14:17:49.989Z,26.90
2018-06-15T14:20:17.673Z,27.20
2018-06-15T14:22:45.500Z,27.00
2018-06-15T14:25:13.190Z,26.80
2018-06-15T14:27:40.981Z,26.80
2018-06-15T14:30:09.039Z,28.70
2018-06-15T14:32:36.761Z,29.10
2018-06-15T14:35:05.081Z,28.60
2018-06-15T14:37:32.917Z,28.80
2018-06-15T14:40:00.600Z,28.90
2018-06-15T14:42:29.125Z,29.00
2018-06-15T14:44:56.905Z,28.30
2018-06-15T14:47:25.108Z,28.40
2018-06-15T14:49:52.742Z,29.20
2018-06-15T14:52:24.377Z,29.80
2018-06-15T14:54:51.969Z,30.10
2018-06-15T14:57:19.545Z,30.80
2018-06-15T14:59:47.166Z,31.10
2018-06-15T15:02:15.935Z,30.50
2018-06-15T15:04:43.773Z,30.40
2018-06-15T15:07:12.404Z,32.50
2018-06-15T15:09:40.034Z,35.60
2018-06-15T15:12:07.610Z,37.00
2018-06-15T15:14:35.268Z,36.10
2018-06-15T15:17:02.921Z,34.80
2018-06-15T15:19:30.786Z,33.80
2018-06-15T15:21:58.537Z,32.40
2018-06-15T15:24:26.112Z,32.80
2018-06-15T15:26:53.705Z,32.40
2018-06-15T15:29:21.315Z,31.40
2018-06-15T15:31:48.901Z,33.30
2018-06-15T15:34:16.567Z,34.10
2018-06-15T15:36:44.548Z,33.00
2018-06-15T15:39:12.128Z,31.20
2018-06-15T15:41:40.218Z,29.90
2018-06-15T15:44:13.887Z,28.80
2018-06-15T15:46:41.746Z,28.10
2018-06-15T15:49:09.568Z,27.90
2018-06-15T15:51:37.450Z,27.60
2018-06-15T15:54:05.106Z,27.20
2018-06-15T15:56:33.497Z,27.00
2018-06-15T15:59:01.247Z,26.60
2018-06-15T16:01:28.830Z,26.50
2018-06-15T16:03:56.502Z,26.40
2018-06-15T16:06:24.090Z,26.10
2018-06-15T16:08:51.661Z,26.10
2018-06-15T16:11:19.248Z,25.90
2018-06-15T16:13:47.857Z,25.90
2018-06-15T16:16:15.442Z,25.90
2018-06-15T16:18:43.029Z,26.00
2018-06-15T16:21:10.681Z,26.10
2018-06-15T16:23:38.393Z,26.20
2018-06-15T16:26:06.087Z,26.30
2018-06-15T16:28:34.016Z,26.50
2018-06-15T16:31:01.592Z,26.60
2018-06-15T16:33:29.210Z,27.60
2018-06-15T16:35:56.786Z,30.80
2018-06-15T16:38:24.547Z,33.30
2018-06-15T16:40:52.113Z,34.00
2018-06-15T16:43:19.819Z,34.90
2018-06-15T16:45:47.664Z,35.90
2018-06-15T16:48:15.272Z,36.50
2018-06-15T16:50:43.913Z,36.40
2018-06-15T16:53:11.677Z,36.50
2018-06-15T16:55:39.265Z,36.00
2018-06-15T16:58:07.898Z,37.10
2018-06-15T17:00:35.513Z,37.50
2018-06-15T17:03:03.266Z,37.90
2018-06-15T17:05:30.991Z,36.90
2018-06-15T17:07:58.625Z,37.40
2018-06-15T17:10:26.293Z,36.30
2018-06-15T17:12:53.993Z,35.80
2018-06-15T17:15:21.580Z,34.10
2018-06-15T17:17:49.205Z,34.10
2018-06-15T17:20:16.932Z,33.40
2018-06-15T17:22:44.637Z,33.60
2018-06-15T17:25:12.330Z,31.80
2018-06-15T17:27:40.130Z,30.80
2018-06-15T17:30:08.642Z,30.40
2018-06-15T17:32:36.310Z,30.20
2018-06-15T17:35:04.146Z,29.70
2018-06-15T17:37:31.749Z,29.20
2018-06-15T17:40:00.126Z,28.50
2018-06-15T17:42:27.934Z,28.20
2018-06-15T17:44:55.701Z,28.00
2018-06-15T17:47:30.430Z,27.40
2018-06-15T17:49:58.241Z,26.80
2018-06-15T17:54:54.247Z,26.30
2018-06-15T17:57:21.929Z,26.30
2018-06-15T17:59:50.269Z,26.30
2018-06-15T18:02:17.952Z,26.40
2018-06-15T18:04:45.660Z,26.60
2018-06-15T18:07:13.285Z,26.50
2018-06-15T18:09:40.882Z,26.10
2018-06-15T18:12:08.792Z,25.70
2018-06-15T18:14:36.575Z,25.50
2018-06-15T18:17:05.117Z,25.30
2018-06-15T18:19:32.897Z,24.90
2018-06-15T18:22:00.609Z,24.70
2018-06-15T18:24:28.205Z,24.50
2018-06-15T18:26:55.886Z,24.40
2018-06-15T18:29:23.525Z,24.20
2018-06-15T18:31:51.781Z,24.10
2018-06-15T18:34:19.534Z,24.00
2018-06-15T18:36:47.106Z,23.90
2018-06-15T18:39:14.701Z,23.70
2018-06-15T18:41:42.706Z,23.60
2018-06-15T18:44:11.140Z,23.40
2018-06-15T18:46:39.649Z,23.30
2018-06-15T18:49:07.791Z,23.30
2018-06-15T18:51:35.545Z,23.40
2018-06-15T18:54:03.189Z,23.30
2018-06-15T18:56:30.901Z,23.10
2018-06-15T18:58:58.488Z,23.10
2018-06-15T19:01:26.005Z,23.20
2018-06-15T19:03:54.314Z,23.00
2018-06-15T19:06:21.941Z,22.90
2018-06-15T19:08:49.490Z,22.70
2018-06-15T19:11:17.097Z,22.50
2018-06-15T19:13:44.692Z,22.50
2018-06-15T19:16:12.262Z,22.30
2018-06-15T19:18:39.945Z,22.30
2018-06-15T19:21:07.837Z,22.10
2018-06-15T19:23:35.504Z,21.90
2018-06-15T19:26:03.173Z,21.90
2018-06-15T19:28:32.139Z,21.80
2018-06-15T19:31:00.025Z,21.80
2018-06-15T19:33:27.745Z,21.70
2018-06-15T19:35:55.401Z,21.50
2018-06-15T19:38:22.940Z,21.50
2018-06-15T19:40:50.479Z,21.40
2018-06-15T19:43:18.037Z,21.20
2018-06-15T19:45:45.942Z,21.20
2018-06-15T19:48:13.481Z,21.10
2018-06-15T19:50:42.381Z,21.00
2018-06-15T19:53:09.942Z,20.90
2018-06-15T19:55:37.497Z,20.80
2018-06-15T19:58:05.039Z,20.80
2018-06-15T20:00:32.636Z,20.80
2018-06-15T20:03:00.206Z,20.70
2018-06-15T20:05:27.894Z,20.60
2018-06-15T20:07:55.428Z,20.60
2018-06-15T20:10:22.985Z,20.50
2018-06-15T20:12:50.502Z,20.40
2018-06-15T20:15:18.068Z,20.40
2018-06-15T20:17:45.572Z,20.30
2018-06-15T20:20:13.205Z,20.30
2018-06-15T20:22:40.732Z,20.30
2018-06-15T20:25:08.305Z,20.30
2018-06-15T20:27:42.757Z,20.20
2018-06-15T20:30:10.329Z,20.20
2018-06-15T20:32:37.869Z,20.20
2018-06-15T20:35:05.529Z,20.10
2018-06-15T20:37:33.100Z,20.00
2018-06-15T20:40:00.677Z,20.00
2018-06-15T20:42:28.185Z,19.90
2018-06-15T20:44:56.693Z,19.90
2018-06-15T20:47:24.496Z,19.80
2018-06-15T20:49:52.062Z,19.90
2018-06-15T20:52:19.796Z,19.90
2018-06-15T20:54:47.382Z,19.90
2018-06-15T20:57:14.925Z,19.90
2018-06-15T20:59:42.521Z,19.90
2018-06-15T21:02:10.087Z,20.00
2018-06-15T21:04:37.738Z,20.00
2018-06-15T21:07:06.013Z,20.00
2018-06-15T21:09:33.563Z,19.90
2018-06-15T21:12:01.242Z,19.80
2018-06-15T21:14:29.001Z,19.80
2018-06-15T21:16:56.639Z,20.00
2018-06-15T21:19:24.352Z,19.90
2018-06-15T21:21:52.050Z,19.80
2018-06-15T21:24:19.934Z,19.70
2018-06-15T21:26:47.495Z,19.60
2018-06-15T21:29:15.721Z,19.60
2018-06-15T21:31:43.277Z,19.60
2018-06-15T21:34:10.851Z,19.70
2018-06-15T21:36:39.752Z,19.80
2018-06-15T21:39:08.269Z,19.80
2018-06-15T21:41:35.834Z,19.80
2018-06-15T21:44:03.553Z,19.90
2018-06-15T21:46:31.110Z,19.90
2018-06-15T21:48:58.676Z,19.80
2018-06-15T21:51:26.278Z,19.90
2018-06-15T21:53:55.000Z,19.80
2018-06-15T21:56:22.622Z,19.80
2018-06-15T21:58:50.232Z,19.70
2018-06-15T22:01:17.780Z,19.70
2018-06-15T22:03:45.439Z,19.60
2018-06-15T22:06:12.987Z,19.60
2018-06-15T22:08:40.627Z,19.50
2018-06-15T22:11:08.214Z,19.50
2018-06-15T22:13:35.821Z,19.40
2018-06-15T22:16:03.386Z,19.30
2018-06-15T22:18:31.288Z,19.10
2018-06-15T22:20:58.980Z,19.10
2018-06-15T22:23:26.529Z,19.10
2018-06-15T22:25:54.243Z,19.10
2018-06-15T22:28:22.058Z,19.10
2018-06-15T22:30:50.048Z,19.10
2018-06-15T22:33:17.610Z,19.00
2018-06-15T22:35:45.187Z,19.00
2018-06-15T22:38:12.796Z,18.90
2018-06-15T22:40:40.849Z,18.90
2018-06-15T22:43:08.405Z,18.80
2018-06-15T22:45:35.965Z,18.80
2018-06-15T22:48:03.555Z,18.70
2018-06-15T22:50:32.001Z,18.70
2018-06-15T22:52:59.556Z,18.60
2018-06-15T22:55:27.198Z,18.70
2018-06-15T22:57:54.732Z,18.80
2018-06-15T23:00:23.376Z,18.80
2018-06-15T23:02:50.981Z,18.80
2018-06-15T23:05:18.533Z,18.80
2018-06-15T23:07:46.753Z,18.80
2018-06-15T23:10:14.287Z,18.70
2018-06-15T23:12:41.858Z,18.70
2018-06-15T23:15:10.650Z,18.70
2018-06-15T23:17:38.189Z,18.60
2018-06-15T23:20:05.870Z,18.50
2018-06-15T23:22:33.412Z,18.40
2018-06-15T23:25:00.941Z,18.30
2018-06-15T23:27:28.493Z,18.30
2018-06-15T23:29:56.097Z,18.30
2018-06-15T23:32:23.671Z,18.30
2018-06-15T23:34:51.645Z,18.20
2018-06-15T23:37:19.199Z,18.10
2018-06-15T23:39:46.761Z,18.10
2018-06-15T23:42:14.651Z,18.10
2018-06-15T23:44:42.237Z,18.00
2018-06-15T23:47:09.774Z,18.00
2018-06-15T23:49:37.424Z,18.00
2018-06-15T23:52:05.461Z,17.90
2018-06-15T23:54:32.997Z,17.80
2018-06-15T23:57:00.546Z,17.70
2018-06-15T23:59:28.098Z,17.60
